Terminal Aerodrome Forecast
Issued by NWS

Home | Current Version | Previous Version | Text Only | Print | Product List | Glossary On
Versions: 1 2 3 4 5 6 7 8 9 10 11 12
000
FTUS44 KTSA 141720
TAFROG
TAF
KROG 141720Z 1418/1518 15009KT P6SM SCT250
     FM150000 14006KT P6SM SCT250
     FM151500 19008KT P6SM FEW250=

USA.gov is the U.S. government's official web portal to all federal, state and local government web resources and services.